createdAt,value
2018-05-10T00:00:17.742Z,22.17
2018-05-10T00:02:45.262Z,22.90
2018-05-10T00:05:12.853Z,21.13
2018-05-10T00:07:41.138Z,22.10
2018-05-10T00:10:08.654Z,22.77
2018-05-10T00:12:36.174Z,21.97
2018-05-10T00:15:04.457Z,21.47
2018-05-10T00:17:32.756Z,21.87
2018-05-10T00:20:00.269Z,21.93
2018-05-10T00:22:28.562Z,19.97
2018-05-10T00:24:56.850Z,22.40
2018-05-10T00:27:24.370Z,21.63
2018-05-10T00:29:51.900Z,24.50
2018-05-10T00:32:19.421Z,24.23
2018-05-10T00:34:47.709Z,19.53
2018-05-10T00:37:15.226Z,17.40
2018-05-10T00:39:42.771Z,17.40
2018-05-10T00:42:10.295Z,16.80
2018-05-10T00:44:37.825Z,16.70
2018-05-10T00:47:06.112Z,18.30
2018-05-10T00:49:34.394Z,16.90
2018-05-10T00:52:01.950Z,18.03
2018-05-10T01:07:57.786Z,18.60
2018-05-10T01:10:25.305Z,18.10
2018-05-10T01:12:53.595Z,19.80
2018-05-10T01:15:21.121Z,19.97
2018-05-10T01:17:49.406Z,18.13
2018-05-10T01:20:17.698Z,18.40
2018-05-10T01:22:45.981Z,19.30
2018-05-10T01:25:14.275Z,20.53
2018-05-10T01:27:41.792Z,21.80
2018-05-10T01:30:09.315Z,21.67
2018-05-10T01:32:36.890Z,21.57
2018-05-10T01:35:16.482Z,20.27
2018-05-10T01:37:44.034Z,20.13
2018-05-10T01:40:11.578Z,20.40
2018-05-10T01:42:39.120Z,21.90
2018-05-10T01:45:06.641Z,21.80
2018-05-10T01:47:34.166Z,21.73
2018-05-10T01:50:02.450Z,22.57
2018-05-10T01:52:30.742Z,21.43
2018-05-10T01:54:58.274Z,21.60
2018-05-10T01:57:26.573Z,22.83
2018-05-10T01:59:54.094Z,22.20
2018-05-10T02:02:21.624Z,19.40
2018-05-10T02:04:49.145Z,21.23
2018-05-10T02:07:16.661Z,20.90
2018-05-10T02:09:44.181Z,21.30
2018-05-10T02:12:11.709Z,21.83
2018-05-10T02:14:40.042Z,21.97
2018-05-10T02:17:07.545Z,21.90
2018-05-10T02:19:35.835Z,21.43
2018-05-10T02:22:03.353Z,20.80
2018-05-10T02:24:30.885Z,20.07
2018-05-10T02:26:58.409Z,22.53
2018-05-10T02:29:25.934Z,20.53
2018-05-10T02:31:53.446Z,20.20
2018-05-10T02:34:20.974Z,19.93
2018-05-10T02:36:49.274Z,19.77
2018-05-10T02:39:16.790Z,19.70
2018-05-10T02:41:44.381Z,20.43
2018-05-10T02:44:11.892Z,19.70
2018-05-10T02:46:39.411Z,19.90
2018-05-10T02:49:06.934Z,19.53
2018-05-10T02:51:34.458Z,21.00
2018-05-10T02:54:01.972Z,19.87
2018-05-10T02:56:30.262Z,22.07
2018-05-10T02:58:57.786Z,23.80
2018-05-10T03:01:25.306Z,24.27
2018-05-10T03:03:52.830Z,24.30
2018-05-10T03:06:20.346Z,23.97
2018-05-10T03:08:47.878Z,24.33
2018-05-10T03:11:15.392Z,22.93
2018-05-10T03:13:43.680Z,20.93
2018-05-10T03:16:11.194Z,22.50
2018-05-10T03:18:38.725Z,24.23
2018-05-10T03:21:06.247Z,23.90
2018-05-10T03:23:34.529Z,24.00
2018-05-10T03:26:02.817Z,21.80
2018-05-10T03:28:30.329Z,22.73
2018-05-10T03:30:57.858Z,21.57
2018-05-10T03:33:25.383Z,23.37
2018-05-10T03:35:53.683Z,23.60
2018-05-10T03:38:21.202Z,23.17
2018-05-10T03:40:48.726Z,21.97
2018-05-10T03:43:16.251Z,20.60
2018-05-10T03:45:43.770Z,24.10
2018-05-10T03:48:11.298Z,24.90
2018-05-10T03:50:38.814Z,23.23
2018-05-10T03:53:07.102Z,23.73
2018-05-10T03:55:34.626Z,22.43
2018-05-10T03:58:02.144Z,23.07
2018-05-10T04:00:29.673Z,22.97
2018-05-10T04:16:32.479Z,24.20
2018-05-10T04:19:00.000Z,26.17
2018-05-10T04:21:28.285Z,24.93
2018-05-10T04:23:55.806Z,25.33
2018-05-10T04:26:23.337Z,25.07
2018-05-10T04:28:50.862Z,27.27
2018-05-10T04:31:18.387Z,28.07
2018-05-10T04:33:45.909Z,29.87
2018-05-10T04:36:13.422Z,27.53
2018-05-10T04:38:41.709Z,28.77
2018-05-10T04:41:09.985Z,30.27
2018-05-10T04:43:37.518Z,29.57
2018-05-10T04:46:05.040Z,29.70
2018-05-10T04:48:32.553Z,29.10
2018-05-10T04:51:00.847Z,31.90
2018-05-10T04:53:28.373Z,30.70
2018-05-10T04:55:55.947Z,30.60
2018-05-10T04:58:24.234Z,31.23
2018-05-10T05:00:52.529Z,29.57
2018-05-10T05:03:20.101Z,30.20
2018-05-10T05:05:47.614Z,32.20
2018-05-10T05:08:15.895Z,28.93
2018-05-10T05:10:44.188Z,32.07
2018-05-10T05:13:11.713Z,30.63
2018-05-10T05:15:40.013Z,31.40
2018-05-10T05:18:08.297Z,32.50
2018-05-10T05:20:35.810Z,32.07
2018-05-10T05:23:03.321Z,30.13
2018-05-10T05:25:30.866Z,30.97
2018-05-10T05:27:59.142Z,30.40
2018-05-10T05:30:27.425Z,29.27
2018-05-10T05:32:54.949Z,32.30
2018-05-10T05:35:22.477Z,31.40
2018-05-10T05:37:50.009Z,30.03
2018-05-10T05:40:17.530Z,28.57
2018-05-10T05:42:46.565Z,30.77
2018-05-10T05:45:14.082Z,30.10
2018-05-10T05:47:41.620Z,31.00
2018-05-10T05:50:09.156Z,33.80
2018-05-10T05:52:36.673Z,30.13
2018-05-10T05:55:05.017Z,30.00
2018-05-10T05:57:32.499Z,30.50
2018-05-10T06:00:00.029Z,27.67
2018-05-10T06:02:27.558Z,29.20
2018-05-10T06:04:55.067Z,29.33
2018-05-10T06:07:22.593Z,29.27
2018-05-10T06:09:50.125Z,28.27
2018-05-10T06:12:17.645Z,28.23
2018-05-10T06:14:45.174Z,28.50
2018-05-10T06:17:12.708Z,27.17
2018-05-10T06:19:40.230Z,28.33
2018-05-10T06:22:07.741Z,27.70
2018-05-10T06:24:35.261Z,29.33
2018-05-10T06:27:03.545Z,28.77
2018-05-10T06:29:31.830Z,29.37
2018-05-10T06:31:59.344Z,27.27
2018-05-10T06:34:26.888Z,28.07
2018-05-10T06:36:54.401Z,31.50
2018-05-10T06:39:21.918Z,26.10
2018-05-10T06:41:49.441Z,22.07
2018-05-10T06:44:16.961Z,23.27
2018-05-10T06:46:45.272Z,18.17
2018-05-10T06:49:12.780Z,33.30
2018-05-10T06:51:40.305Z,32.97
2018-05-10T06:54:07.818Z,20.57
2018-05-10T06:56:36.114Z,18.07
2018-05-10T06:59:03.633Z,16.27
2018-05-10T07:01:31.150Z,15.13
2018-05-10T07:03:58.685Z,14.80
2018-05-10T07:06:26.978Z,15.17
2018-05-10T07:08:54.502Z,12.80
2018-05-10T07:11:22.797Z,12.10
2018-05-10T07:13:51.134Z,13.60
2018-05-10T07:16:18.833Z,13.17
2018-05-10T07:18:47.110Z,12.40
2018-05-10T07:21:15.389Z,10.40
2018-05-10T07:23:43.665Z,11.00
2018-05-10T07:26:11.222Z,12.00
2018-05-10T07:28:39.507Z,10.63
2018-05-10T07:31:07.022Z,17.73
2018-05-10T07:33:34.543Z,11.50
2018-05-10T07:36:02.053Z,10.70
2018-05-10T07:38:29.571Z,10.30
2018-05-10T07:40:57.091Z,11.17
2018-05-10T07:43:25.374Z,12.00
2018-05-10T07:45:53.649Z,9.97
2018-05-10T07:48:21.926Z,9.80
2018-05-10T07:50:50.198Z,10.30
2018-05-10T07:53:18.507Z,9.80
2018-05-10T07:55:46.005Z,10.10
2018-05-10T07:58:13.526Z,11.20
2018-05-10T08:00:41.039Z,9.57
2018-05-10T08:03:09.337Z,10.00
2018-05-10T08:05:36.842Z,9.83
2018-05-10T08:08:04.363Z,9.47
2018-05-10T08:10:31.882Z,9.23
2018-05-10T08:12:59.397Z,10.07
2018-05-10T08:15:26.910Z,8.90
2018-05-10T08:17:55.197Z,10.10
2018-05-10T08:20:23.474Z,9.90
2018-05-10T08:22:50.998Z,9.10
2018-05-10T08:25:20.018Z,9.30
2018-05-10T08:27:48.305Z,13.10
2018-05-10T08:30:16.683Z,12.30
2018-05-10T08:32:44.114Z,9.33
2018-05-10T08:35:11.639Z,9.47
2018-05-10T08:37:39.147Z,9.37
2018-05-10T08:40:07.425Z,8.90
2018-05-10T08:42:35.709Z,9.13
2018-05-10T08:45:04.007Z,10.07
2018-05-10T08:47:31.526Z,10.83
2018-05-10T08:49:59.049Z,9.23
2018-05-10T08:52:26.565Z,9.10
2018-05-10T08:54:54.844Z,9.10
2018-05-10T08:57:23.119Z,9.07
2018-05-10T08:59:51.490Z,9.10
2018-05-10T09:02:18.926Z,9.13
2018-05-10T09:04:46.445Z,9.03
2018-05-10T09:07:13.965Z,8.97
2018-05-10T09:09:42.263Z,8.87
2018-05-10T09:12:09.769Z,9.20
2018-05-10T09:14:37.283Z,8.90
2018-05-10T09:17:04.790Z,8.83
2018-05-10T09:19:33.813Z,11.00
2018-05-10T09:22:02.097Z,11.47
2018-05-10T09:24:29.614Z,9.10
2018-05-10T09:26:57.145Z,8.40
2018-05-10T09:29:24.650Z,8.30
2018-05-10T09:31:52.951Z,7.90
2018-05-10T09:34:20.461Z,8.83
2018-05-10T09:36:47.983Z,8.47
2018-05-10T09:39:15.556Z,8.80
2018-05-10T09:41:43.051Z,8.60
2018-05-10T09:44:10.569Z,8.77
2018-05-10T09:46:38.082Z,9.37
2018-05-10T09:49:06.367Z,8.50
2018-05-10T09:51:34.651Z,8.00
2018-05-10T09:54:02.949Z,7.53
2018-05-10T09:56:30.465Z,9.10
2018-05-10T09:58:57.981Z,7.87
2018-05-10T10:01:25.497Z,7.67
2018-05-10T10:03:53.783Z,8.00
2018-05-10T10:06:22.066Z,8.17
2018-05-10T10:08:49.574Z,7.73
2018-05-10T10:11:17.086Z,8.40
2018-05-10T10:13:44.589Z,8.50
2018-05-10T10:16:12.112Z,10.60
2018-05-10T10:18:39.633Z,9.60
2018-05-10T10:21:07.917Z,8.40
2018-05-10T10:23:36.208Z,8.50
2018-05-10T10:26:03.725Z,7.90
2018-05-10T10:28:31.246Z,8.83
2018-05-10T10:30:58.759Z,9.60
2018-05-10T10:33:26.282Z,8.00
2018-05-10T10:35:53.792Z,7.63
2018-05-10T10:38:22.066Z,8.07
2018-05-10T10:40:50.351Z,8.67
2018-05-10T10:43:18.633Z,12.60
2018-05-10T10:45:46.142Z,9.83
2018-05-10T10:48:13.664Z,8.60
2018-05-10T10:50:41.177Z,9.13
2018-05-10T10:53:08.699Z,8.50
2018-05-10T10:55:36.214Z,8.77
2018-05-10T10:58:04.496Z,7.30
2018-05-10T11:00:32.022Z,7.40
2018-05-10T11:02:59.534Z,8.10
2018-05-10T11:05:27.050Z,7.93
2018-05-10T11:07:54.559Z,8.73
2018-05-10T11:10:22.087Z,8.10
2018-05-10T11:12:50.357Z,7.63
2018-05-10T11:15:18.639Z,7.70
2018-05-10T11:17:46.923Z,7.50
2018-05-10T11:20:14.445Z,7.57
2018-05-10T11:22:41.982Z,8.33
2018-05-10T11:25:09.481Z,7.80
2018-05-10T11:27:37.778Z,8.63
2018-05-10T11:30:05.285Z,8.87
2018-05-10T11:32:32.802Z,7.70
2018-05-10T11:35:00.308Z,6.83
2018-05-10T11:37:27.815Z,7.80
2018-05-10T11:39:55.335Z,7.73
2018-05-10T11:42:22.851Z,7.10
2018-05-10T11:44:50.365Z,7.60
2018-05-10T11:47:18.653Z,7.50
2018-05-10T11:49:46.929Z,6.40
2018-05-10T11:52:15.222Z,7.43
2018-05-10T11:54:42.733Z,7.70
2018-05-10T11:57:10.251Z,7.33
2018-05-10T11:59:37.754Z,7.00
2018-05-10T12:02:05.278Z,6.60
2018-05-10T12:04:32.797Z,6.63
2018-05-10T12:07:01.080Z,7.17
2018-05-10T12:09:29.359Z,8.17
2018-05-10T12:11:57.634Z,8.40
2018-05-10T12:14:25.906Z,7.80
2018-05-10T12:16:54.198Z,7.90
2018-05-10T12:19:21.711Z,7.50
2018-05-10T12:21:49.234Z,7.93
2018-05-10T12:24:16.746Z,8.70
2018-05-10T12:26:45.021Z,7.63
2018-05-10T12:29:12.546Z,7.50
2018-05-10T12:31:40.074Z,7.80
2018-05-10T12:34:07.582Z,8.30
2018-05-10T12:36:35.098Z,8.07
2018-05-10T12:39:02.614Z,8.17
2018-05-10T12:41:30.142Z,8.43
2018-05-10T12:43:57.654Z,8.10
2018-05-10T12:46:25.170Z,8.30
2018-05-10T12:48:52.693Z,8.20
2018-05-10T12:51:20.198Z,7.03
2018-05-10T12:53:47.707Z,7.00
2018-05-10T12:56:15.252Z,6.80
2018-05-10T12:58:42.761Z,6.60
2018-05-10T13:01:10.385Z,7.67
2018-05-10T13:03:37.889Z,6.77
2018-05-10T13:06:05.409Z,7.37
2018-05-10T13:08:32.919Z,7.07
2018-05-10T13:11:00.435Z,6.93
2018-05-10T13:13:27.958Z,7.23
2018-05-10T13:15:55.570Z,7.10
2018-05-10T13:18:23.013Z,7.30
2018-05-10T13:20:50.521Z,8.50
2018-05-10T13:23:18.802Z,7.20
2018-05-10T13:25:47.085Z,6.57
2018-05-10T13:28:15.356Z,7.00
2018-05-10T13:30:43.646Z,7.03
2018-05-10T13:33:11.154Z,6.77
2018-05-10T13:35:38.671Z,8.20
2018-05-10T13:38:06.186Z,6.03
2018-05-10T13:40:33.697Z,6.30
2018-05-10T13:43:01.214Z,6.53
2018-05-10T13:45:29.493Z,7.67
2018-05-10T13:47:57.778Z,6.53
2018-05-10T13:50:26.057Z,6.33
2018-05-10T13:52:54.355Z,6.27
2018-05-10T13:55:21.887Z,5.90
2018-05-10T13:57:50.157Z,6.47
2018-05-10T14:00:18.431Z,6.10
2018-05-10T14:02:45.974Z,7.10
2018-05-10T14:05:13.488Z,6.60
2018-05-10T14:07:41.011Z,6.53
2018-05-10T14:10:09.290Z,6.73
2018-05-10T14:12:37.566Z,5.97
2018-05-10T14:15:05.841Z,6.97
2018-05-10T14:17:34.133Z,7.70
2018-05-10T14:20:02.412Z,10.87
2018-05-10T14:22:29.938Z,6.10
2018-05-10T14:24:57.442Z,6.57
2018-05-10T14:27:24.946Z,6.97
2018-05-10T14:29:52.464Z,7.90
2018-05-10T14:32:19.982Z,9.07
2018-05-10T14:34:48.287Z,7.70
2018-05-10T14:37:15.803Z,6.83
2018-05-10T14:39:43.319Z,7.10
2018-05-10T14:42:10.832Z,6.10
2018-05-10T14:44:38.355Z,6.20
2018-05-10T14:47:06.178Z,6.00
2018-05-10T14:49:34.466Z,6.40
2018-05-10T14:52:02.004Z,6.90
2018-05-10T14:54:29.551Z,6.17
2018-05-10T14:56:58.570Z,6.37
2018-05-10T14:59:26.078Z,6.50
2018-05-10T15:01:53.593Z,7.13
2018-05-10T15:04:21.105Z,7.37
2018-05-10T15:06:48.619Z,6.97
2018-05-10T15:09:16.126Z,6.77
2018-05-10T15:11:43.647Z,7.00
2018-05-10T15:14:11.157Z,6.70
2018-05-10T15:16:38.674Z,6.37
2018-05-10T15:19:06.186Z,7.37
2018-05-10T15:21:34.469Z,6.87
2018-05-10T15:24:02.746Z,9.40
2018-05-10T15:26:30.261Z,7.57
2018-05-10T15:28:57.767Z,7.43
2018-05-10T15:31:26.041Z,6.47
2018-05-10T15:33:54.326Z,5.77
2018-05-10T15:36:21.853Z,5.73
2018-05-10T15:38:49.361Z,6.60
2018-05-10T15:41:16.871Z,9.50
2018-05-10T15:43:44.382Z,5.43
2018-05-10T15:46:11.890Z,5.63
2018-05-10T15:48:39.410Z,5.97
2018-05-10T15:51:06.910Z,5.57
2018-05-10T15:53:35.206Z,6.23
2018-05-10T15:56:03.480Z,5.77
2018-05-10T15:58:30.999Z,6.17
2018-05-10T16:00:58.513Z,6.80
2018-05-10T16:03:26.018Z,6.60
2018-05-10T16:05:53.532Z,6.43
2018-05-10T16:08:21.041Z,5.60
2018-05-10T16:10:50.065Z,6.63
2018-05-10T16:13:18.345Z,6.60
2018-05-10T16:15:46.622Z,6.60
2018-05-10T16:18:14.898Z,6.10
2018-05-10T16:20:43.173Z,5.60
2018-05-10T16:23:11.453Z,5.10
2018-05-10T16:25:38.954Z,5.40
2018-05-10T16:28:06.471Z,5.80
2018-05-10T16:30:33.995Z,5.13
2018-05-10T16:33:01.521Z,5.77
2018-05-10T16:40:23.956Z,6.80
2018-05-10T16:42:52.243Z,9.50
2018-05-10T16:45:19.761Z,10.27
2018-05-10T16:47:47.267Z,7.63
2018-05-10T16:50:14.797Z,6.97
2018-05-10T16:52:43.081Z,7.20
2018-05-10T16:55:11.361Z,8.00
2018-05-10T16:57:39.642Z,9.97
2018-05-10T17:00:07.926Z,8.87
2018-05-10T17:02:35.442Z,8.77
2018-05-10T17:05:03.718Z,8.77
2018-05-10T17:07:31.236Z,9.60
2018-05-10T17:09:58.753Z,8.77
2018-05-10T17:12:27.021Z,9.60
2018-05-10T17:14:54.541Z,9.63
2018-05-10T17:17:22.046Z,9.03
2018-05-10T17:19:50.334Z,7.90
2018-05-10T17:22:18.617Z,7.90
2018-05-10T17:24:46.130Z,8.07
2018-05-10T17:27:13.648Z,8.23
2018-05-10T17:29:41.162Z,7.80
2018-05-10T17:32:08.686Z,6.90
2018-05-10T17:34:36.197Z,7.63
2018-05-10T17:37:04.478Z,8.17
2018-05-10T17:39:32.746Z,7.33
2018-05-10T17:42:01.034Z,8.20
2018-05-10T17:44:29.322Z,8.53
2018-05-10T17:46:56.829Z,8.90
2018-05-10T17:49:24.347Z,8.80
2018-05-10T17:51:51.858Z,8.47
2018-05-10T17:54:20.136Z,8.90
2018-05-10T17:56:48.425Z,7.90
2018-05-10T17:59:16.702Z,7.90
2018-05-10T18:01:44.982Z,8.70
2018-05-10T18:04:13.254Z,8.90
2018-05-10T18:06:41.525Z,8.90
2018-05-10T18:09:09.041Z,9.80
2018-05-10T18:11:36.561Z,10.17
2018-05-10T18:14:04.837Z,8.97
2018-05-10T18:16:33.140Z,9.40
2018-05-10T18:19:00.645Z,9.07
2018-05-10T18:21:28.922Z,8.70
2018-05-10T18:23:57.941Z,9.20
2018-05-10T18:26:26.230Z,8.20
2018-05-10T18:28:53.745Z,8.60
2018-05-10T18:31:21.246Z,8.87
2018-05-10T18:33:48.758Z,9.07
2018-05-10T18:36:16.266Z,9.50
2018-05-10T18:38:43.777Z,8.80
2018-05-10T18:41:11.282Z,8.20
2018-05-10T18:43:38.793Z,8.67
2018-05-10T18:46:06.313Z,8.17
2018-05-10T18:48:33.825Z,9.00
2018-05-10T18:51:01.345Z,8.87
2018-05-10T18:53:28.857Z,13.93
2018-05-10T18:55:57.141Z,15.13
2018-05-10T18:58:25.419Z,12.37
2018-05-10T19:00:53.705Z,11.30
2018-05-10T19:03:21.230Z,12.63
2018-05-10T19:05:50.262Z,12.37
2018-05-10T19:08:17.762Z,6.70
2018-05-10T19:10:45.277Z,6.93
2018-05-10T19:13:12.786Z,8.27
2018-05-10T19:15:40.306Z,8.37
2018-05-10T19:18:07.813Z,8.40
2018-05-10T19:20:36.103Z,8.70
2018-05-10T19:23:04.397Z,8.53
2018-05-10T19:25:32.665Z,8.80
2018-05-10T19:28:00.941Z,8.00
2018-05-10T19:30:29.219Z,9.57
2018-05-10T19:32:57.497Z,8.23
2018-05-10T19:35:25.782Z,10.60
2018-05-10T19:37:54.054Z,9.10
2018-05-10T19:40:22.338Z,9.10
2018-05-10T19:42:49.865Z,10.20
2018-05-10T19:45:18.929Z,10.20
2018-05-10T19:47:46.423Z,9.00
2018-05-10T19:50:14.729Z,8.80
2018-05-10T19:52:42.242Z,9.20
2018-05-10T19:55:09.745Z,8.20
2018-05-10T19:57:37.270Z,9.20
2018-05-10T20:00:06.289Z,9.50
2018-05-10T20:02:34.585Z,10.57
2018-05-10T20:05:02.104Z,9.37
2018-05-10T20:07:30.373Z,9.90
2018-05-10T20:09:59.402Z,10.03
2018-05-10T20:12:26.951Z,8.93
2018-05-10T20:14:54.447Z,9.23
2018-05-10T20:17:21.954Z,8.67
2018-05-10T20:19:49.479Z,9.13
2018-05-10T20:22:16.998Z,9.17
2018-05-10T20:24:44.517Z,10.10
2018-05-10T20:27:12.035Z,9.70
2018-05-10T20:29:39.569Z,10.47
2018-05-10T20:32:07.185Z,9.87
2018-05-10T20:34:34.617Z,10.57
2018-05-10T20:37:02.150Z,9.60
2018-05-10T20:39:29.662Z,9.70
2018-05-10T20:41:57.170Z,9.87
2018-05-10T20:44:24.690Z,10.27
2018-05-10T20:46:52.978Z,11.17
2018-05-10T20:49:21.265Z,9.97
2018-05-10T20:51:49.542Z,9.53
2018-05-10T20:54:17.897Z,9.47
2018-05-10T20:56:45.415Z,9.60
2018-05-10T20:59:12.930Z,11.07
2018-05-10T21:01:41.228Z,9.80
2018-05-10T21:04:08.761Z,11.20
2018-05-10T21:06:36.274Z,12.77
2018-05-10T21:09:03.782Z,11.53
2018-05-10T21:11:32.074Z,11.63
2018-05-10T21:14:00.353Z,11.17
2018-05-10T21:16:28.651Z,12.10
2018-05-10T21:18:56.172Z,9.80
2018-05-10T21:21:24.462Z,9.30
2018-05-10T21:23:52.737Z,10.07
2018-05-10T21:26:21.034Z,9.60
2018-05-10T21:28:48.553Z,9.03
2018-05-10T21:31:16.066Z,9.60
2018-05-10T21:33:43.594Z,9.67
2018-05-10T21:36:11.110Z,9.43
2018-05-10T21:38:38.634Z,9.90
2018-05-10T21:41:06.145Z,9.77
2018-05-10T21:43:33.661Z,9.10
2018-05-10T21:46:01.181Z,9.80
2018-05-10T21:48:29.466Z,9.63
2018-05-10T21:50:56.987Z,9.90
2018-05-10T21:53:24.544Z,8.77
2018-05-10T21:55:52.038Z,9.50
2018-05-10T21:58:20.316Z,9.23
2018-05-10T22:00:48.598Z,9.70
2018-05-10T22:03:16.106Z,10.20
2018-05-10T22:05:43.624Z,9.00
2018-05-10T22:08:11.150Z,8.90
2018-05-10T22:10:39.449Z,10.27
2018-05-10T22:13:06.966Z,10.03
2018-05-10T22:15:34.483Z,8.73
2018-05-10T22:18:02.001Z,9.90
2018-05-10T22:20:29.514Z,9.60
2018-05-10T22:22:57.034Z,9.70
2018-05-10T22:25:25.326Z,10.40
2018-05-10T22:27:52.838Z,9.30
2018-05-10T22:30:20.362Z,9.40
2018-05-10T22:32:47.878Z,9.37
2018-05-10T22:35:16.163Z,9.93
2018-05-10T22:37:44.454Z,10.27
2018-05-10T22:40:11.970Z,9.33
2018-05-10T22:42:39.488Z,8.63
2018-05-10T22:45:06.999Z,8.43
2018-05-10T22:47:35.280Z,8.40
2018-05-10T22:50:03.561Z,7.50
2018-05-10T22:52:31.851Z,6.90
2018-05-10T22:54:59.373Z,7.50
2018-05-10T22:57:26.895Z,7.17
2018-05-10T22:59:54.418Z,7.13
2018-05-10T23:02:22.697Z,7.33
2018-05-10T23:04:50.972Z,8.03
2018-05-10T23:07:19.245Z,7.20
2018-05-10T23:09:47.597Z,8.20
2018-05-10T23:12:15.130Z,7.90
2018-05-10T23:14:43.361Z,7.90
2018-05-10T23:17:11.641Z,7.93
2018-05-10T23:19:39.922Z,8.37
2018-05-10T23:22:08.200Z,8.37
2018-05-10T23:24:35.712Z,9.20
2018-05-10T23:27:03.236Z,8.10
2018-05-10T23:29:30.746Z,7.93
2018-05-10T23:31:58.267Z,8.90
2018-05-10T23:34:25.789Z,9.20
2018-05-10T23:36:54.066Z,8.90
2018-05-10T23:39:22.349Z,9.53
2018-05-10T23:41:49.861Z,8.97
2018-05-10T23:44:17.385Z,8.97
2018-05-10T23:46:44.901Z,8.97
2018-05-10T23:49:13.188Z,9.00
2018-05-10T23:51:41.465Z,8.57
2018-05-10T23:54:09.752Z,9.13
2018-05-10T23:56:37.267Z,8.90
2018-05-10T23:59:04.788Z,9.17
